Time;durP1;ratioP1;P1;durP2;ratioP2;P2;SDS_P1;SDS_P2;PMS_P1;PMS_P2;Temp;Humidity;BMP_temperature;BMP_pressure;BME280_temperature;BME280_humidity;BME280_pressure;Samples;Min_cycle;Max_cycle;Signal;HPM_P1;HPM_P2
2023/03/07 00:00:21;;;;;;;22.00;14.50;;;;;;;-0.50;82.09;98532.63;218067;1257;139581;-64
2023/03/07 00:05:45;;;;;;;30.60;16.90;;;;;;;-0.55;82.16;98531.77;217638;1257;144427;-65
2023/03/07 00:10:49;;;;;;;33.90;15.30;;;;;;;-0.62;82.15;98537.71;218113;1256;140159;-64
2023/03/07 00:15:53;;;;;;;26.80;16.40;;;;;;;-0.63;82.36;98539.28;218059;1256;139747;-64
2023/03/07 00:21:08;;;;;;;24.90;14.70;;;;;;;-0.63;82.46;98540.44;217952;1255;139751;-63
2023/03/07 00:26:20;;;;;;;24.50;15.70;;;;;;;-0.67;82.23;98532.05;218130;1256;139492;-63
2023/03/07 00:31:23;;;;;;;26.90;16.30;;;;;;;-0.75;82.34;98531.70;217777;1257;139137;-63
2023/03/07 00:36:26;;;;;;;27.00;14.20;;;;;;;-0.80;82.46;98529.78;218945;1256;139459;-63
2023/03/07 00:41:29;;;;;;;30.10;16.20;;;;;;;-0.81;82.15;98522.96;218072;1259;141084;-63
2023/03/07 00:46:32;;;;;;;30.10;18.20;;;;;;;-0.79;82.40;98527.13;217993;1257;139469;-63
2023/03/07 00:51:36;;;;;;;25.80;14.70;;;;;;;-0.77;82.63;98522.92;218451;1256;139846;-63
2023/03/07 00:56:39;;;;;;;33.20;16.10;;;;;;;-0.81;82.31;98517.41;217864;1258;139615;-63
2023/03/07 01:01:42;;;;;;;26.70;14.20;;;;;;;-0.86;82.41;98508.99;219842;1256;141049;-65
2023/03/07 01:06:45;;;;;;;26.10;14.70;;;;;;;-0.89;82.36;98508.30;220410;1256;139367;-66
2023/03/07 01:11:49;;;;;;;25.00;14.40;;;;;;;-0.87;82.02;98501.19;220359;1256;140166;-65
2023/03/07 01:16:53;;;;;;;26.20;14.30;;;;;;;-0.84;82.05;98494.58;220458;1256;140136;-65
2023/03/07 01:21:56;;;;;;;29.70;16.50;;;;;;;-0.84;81.96;98494.17;219765;1256;141073;-64
2023/03/07 01:26:59;;;;;;;25.10;16.70;;;;;;;-0.86;81.92;98494.14;219535;1256;139608;-65
2023/03/07 01:32:03;;;;;;;21.30;14.40;;;;;;;-0.92;81.88;98488.16;218420;1256;139698;-64
2023/03/07 01:37:06;;;;;;;24.20;13.80;;;;;;;-0.97;81.95;98491.77;217644;1259;140242;-64
2023/03/07 01:42:10;;;;;;;30.80;16.40;;;;;;;-0.99;81.81;98485.19;218602;1256;140384;-64
2023/03/07 01:47:13;;;;;;;27.90;16.90;;;;;;;-0.99;82.11;98480.23;218897;1256;139524;-63
2023/03/07 01:52:29;;;;;;;25.00;16.00;;;;;;;-0.99;81.95;98476.82;217780;1256;139201;-63
2023/03/07 01:57:36;;;;;;;28.10;15.50;;;;;;;-1.02;82.02;98475.11;218147;1257;139403;-63
2023/03/07 02:02:43;;;;;;;30.90;15.60;;;;;;;-1.11;82.16;98476.65;217768;1256;139641;-64
2023/03/07 02:07:49;;;;;;;27.10;14.90;;;;;;;-1.17;82.05;98475.44;218671;1256;140572;-63
2023/03/07 02:12:53;;;;;;;23.60;14.10;;;;;;;-1.17;82.12;98473.17;217718;1256;139775;-63
2023/03/07 02:18:00;;;;;;;21.20;13.80;;;;;;;-1.19;81.89;98474.02;218484;1256;139906;-64
2023/03/07 02:23:04;;;;;;;29.30;15.50;;;;;;;-1.23;82.01;98473.04;218317;1256;139381;-63
2023/03/07 02:28:12;;;;;;;23.60;12.60;;;;;;;-1.28;82.01;98473.45;218033;1257;139317;-64
2023/03/07 02:33:16;;;;;;;23.40;12.90;;;;;;;-1.38;82.14;98473.08;218043;1257;139357;-64
2023/03/07 02:38:18;;;;;;;23.60;14.50;;;;;;;-1.47;82.07;98474.52;218360;1256;139551;-64
2023/03/07 02:43:21;;;;;;;25.00;13.40;;;;;;;-1.55;81.59;98466.39;219005;1257;139940;-64
2023/03/07 02:48:24;;;;;;;26.80;12.50;;;;;;;-1.54;82.07;98463.10;219956;1256;139905;-66
2023/03/07 02:53:27;;;;;;;27.80;15.50;;;;;;;-1.51;82.05;98455.38;217963;1257;140504;-64
2023/03/07 02:58:29;;;;;;;33.40;15.90;;;;;;;-1.60;81.66;98451.63;218029;1257;139613;-65
2023/03/07 03:03:31;;;;;;;28.60;15.50;;;;;;;-1.72;81.70;98450.39;218409;1256;141727;-63
2023/03/07 03:08:34;;;;;;;31.80;16.70;;;;;;;-1.80;81.58;98442.55;219185;1257;140333;-63
2023/03/07 03:13:38;;;;;;;29.40;16.80;;;;;;;-1.90;81.56;98434.89;220027;1256;140316;-63
2023/03/07 03:18:40;;;;;;;24.70;16.20;;;;;;;-1.92;82.09;98433.39;219387;1256;139200;-63
2023/03/07 03:23:43;;;;;;;21.50;11.80;;;;;;;-1.90;82.39;98438.88;219664;1256;139891;-65
2023/03/07 03:28:46;;;;;;;32.80;19.00;;;;;;;-1.90;82.14;98435.38;219394;1257;141585;-63
2023/03/07 03:33:51;;;;;;;27.10;14.50;;;;;;;-1.86;82.18;98430.83;218650;1257;151700;-64
2023/03/07 03:38:56;;;;;;;34.50;19.60;;;;;;;-1.88;82.29;98430.13;218899;1256;140231;-65
2023/03/07 03:44:01;;;;;;;31.60;15.60;;;;;;;-1.89;82.55;98422.84;217727;1257;140327;-64
2023/03/07 03:49:04;;;;;;;30.70;15.40;;;;;;;-1.89;82.42;98418.63;218397;1257;140537;-63
2023/03/07 03:54:07;;;;;;;36.20;18.60;;;;;;;-1.87;82.26;98413.34;217791;1256;139650;-63
2023/03/07 03:59:11;;;;;;;33.20;18.40;;;;;;;-1.92;82.48;98415.66;217851;1257;139915;-64
2023/03/07 04:04:15;;;;;;;28.40;16.00;;;;;;;-1.97;82.32;98424.22;217681;1257;139883;-63
2023/03/07 04:09:17;;;;;;;28.90;13.10;;;;;;;-2.13;82.08;98424.65;217663;1259;140699;-63
2023/03/07 04:14:21;;;;;;;25.00;12.40;;;;;;;-2.18;82.47;98421.16;217370;1256;1323317;-64
2023/03/07 04:19:23;;;;;;;22.40;12.30;;;;;;;-2.30;82.43;98418.86;217846;1259;139776;-63
2023/03/07 04:24:27;;;;;;;29.50;14.60;;;;;;;-2.39;82.45;98420.61;218494;1257;139979;-63
2023/03/07 04:29:32;;;;;;;30.20;16.70;;;;;;;-2.45;82.61;98411.95;218651;1256;140637;-63
2023/03/07 04:34:35;;;;;;;29.50;16.40;;;;;;;-2.44;82.68;98414.01;217761;1260;142052;-64
2023/03/07 04:39:40;;;;;;;34.90;17.80;;;;;;;-2.50;82.84;98408.73;218787;1257;140034;-63
2023/03/07 04:44:44;;;;;;;33.30;15.90;;;;;;;-2.49;82.81;98406.35;218356;1257;142339;-62
2023/03/07 04:49:46;;;;;;;20.20;10.90;;;;;;;-2.45;82.76;98407.95;218101;1257;140087;-65
2023/03/07 04:54:48;;;;;;;30.70;15.80;;;;;;;-2.52;82.69;98417.54;220147;1256;141117;-65
2023/03/07 04:59:52;;;;;;;19.80;10.80;;;;;;;-2.57;82.82;98415.06;220538;1256;139897;-66
2023/03/07 05:04:59;;;;;;;;;;;;;;;-2.59;82.78;98403.96;220120;1259;140851;-65
2023/03/07 05:10:03;;;;;;;31.70;14.80;;;;;;;-2.64;82.82;98394.50;220743;1256;126556;-66
2023/03/07 05:15:06;;;;;;;34.10;16.20;;;;;;;-2.60;82.79;98393.15;219739;1256;140767;-65
2023/03/07 05:20:11;;;;;;;35.60;17.40;;;;;;;-2.62;82.59;98387.12;219214;1256;140122;-64
2023/03/07 05:25:16;;;;;;;38.00;15.80;;;;;;;-2.65;82.97;98389.20;217832;1256;140836;-63
2023/03/07 05:30:20;;;;;;;39.40;18.20;;;;;;;-2.70;82.98;98384.73;218894;1256;139770;-64
2023/03/07 05:35:24;;;;;;;35.60;19.10;;;;;;;-2.67;82.99;98380.10;217928;1256;140349;-63
2023/03/07 05:40:27;;;;;;;31.90;17.80;;;;;;;-2.72;82.92;98382.73;217656;1257;140303;-63
2023/03/07 05:45:31;;;;;;;34.50;20.10;;;;;;;-2.66;83.48;98377.43;218576;1260;139305;-62
2023/03/07 05:50:37;;;;;;;40.40;18.50;;;;;;;-2.58;83.54;98366.16;217673;1256;140358;-63
2023/03/07 05:55:42;;;;;;;45.10;21.50;;;;;;;-2.51;83.43;98363.45;217615;1260;140278;-63
2023/03/07 06:00:45;;;;;;;23.30;12.70;;;;;;;-2.35;83.59;98360.54;218198;1257;142024;-63
2023/03/07 06:05:50;;;;;;;34.70;18.10;;;;;;;-2.26;83.44;98347.39;218189;1257;141903;-64
2023/03/07 06:10:55;;;;;;;33.70;16.40;;;;;;;-2.14;83.51;98345.69;217895;1257;139361;-65
2023/03/07 06:15:59;;;;;;;39.30;21.20;;;;;;;-2.04;83.37;98344.48;217706;1257;141351;-60
2023/03/07 06:21:07;;;;;;;37.90;19.70;;;;;;;-1.98;83.38;98335.22;218512;1259;140292;-62
2023/03/07 06:26:11;;;;;;;;;;;;;;;-1.86;83.12;98332.70;217880;1260;140311;-63
2023/03/07 06:31:17;;;;;;;38.10;19.20;;;;;;;-1.75;83.08;98329.40;218545;1256;126530;-62
2023/03/07 06:36:21;;;;;;;45.60;20.00;;;;;;;-1.60;83.32;98327.18;217827;1257;139997;-64
2023/03/07 06:41:25;;;;;;;39.40;19.00;;;;;;;-1.44;83.07;98318.14;219165;1257;141361;-63
2023/03/07 06:46:27;;;;;;;27.50;15.20;;;;;;;-1.26;83.13;98319.60;217648;1257;141669;-65
2023/03/07 06:51:30;;;;;;;31.70;16.10;;;;;;;-1.12;83.07;98308.60;220423;1256;140555;-66
2023/03/07 06:56:34;;;;;;;26.90;14.80;;;;;;;-1.00;83.16;98298.32;220253;1256;140657;-61
2023/03/07 07:01:36;;;;;;;40.40;20.40;;;;;;;-0.83;82.97;98292.65;219595;1256;141772;-65
2023/03/07 07:06:38;;;;;;;36.40;17.50;;;;;;;-0.58;83.29;98290.49;218925;1256;141015;-67
2023/03/07 07:11:40;;;;;;;35.30;19.20;;;;;;;-0.32;83.23;98284.82;219101;1256;142227;-66
2023/03/07 07:16:44;;;;;;;32.70;17.90;;;;;;;0.05;83.32;98287.23;217975;1257;141316;-69
2023/03/07 07:21:47;;;;;;;33.10;18.50;;;;;;;0.30;82.74;98275.80;217834;1256;139761;-67
2023/03/07 07:26:51;;;;;;;34.00;19.10;;;;;;;0.58;82.31;98271.41;218122;1256;141422;-69
2023/03/07 07:31:54;;;;;;;38.00;21.40;;;;;;;0.76;82.16;98256.75;218233;1256;140093;-65
2023/03/07 07:36:58;;;;;;;38.50;18.70;;;;;;;0.85;81.91;98248.12;218602;1261;140543;-67
2023/03/07 07:42:02;;;;;;;34.20;17.80;;;;;;;1.02;82.28;98242.05;217956;1259;139983;-67
2023/03/07 07:47:06;;;;;;;31.50;14.40;;;;;;;1.63;82.69;98233.21;217739;1261;141320;-66
2023/03/07 07:52:09;;;;;;;40.60;18.60;;;;;;;2.35;82.79;98229.04;218631;1259;139919;-64
2023/03/07 07:57:14;;;;;;;32.90;18.50;;;;;;;2.95;82.42;98222.02;217527;1257;139807;-65
2023/03/07 08:02:17;;;;;;;34.50;17.10;;;;;;;3.53;82.15;98213.82;217479;1260;139702;-66
2023/03/07 08:07:20;;;;;;;34.70;17.00;;;;;;;3.97;81.58;98215.25;217953;1261;139532;-67
2023/03/07 08:12:24;;;;;;;30.80;16.90;;;;;;;4.23;80.60;98201.45;217902;1257;139552;-66
2023/03/07 08:17:31;;;;;;;31.40;16.50;;;;;;;4.32;79.89;98196.52;217692;1260;139773;-66
2023/03/07 08:22:36;;;;;;;37.80;20.10;;;;;;;4.49;80.05;98189.10;217811;1256;139913;-66
2023/03/07 08:27:39;;;;;;;24.20;13.80;;;;;;;4.45;78.83;98192.25;217447;1256;141390;-66
2023/03/07 08:32:43;;;;;;;33.60;17.40;;;;;;;4.47;78.78;98187.59;217584;1260;140379;-65
2023/03/07 08:37:48;;;;;;;29.80;16.00;;;;;;;4.61;78.81;98184.74;218136;1259;140370;-66
2023/03/07 08:42:54;;;;;;;32.20;14.60;;;;;;;4.83;78.73;98188.09;217656;1262;140540;-66
2023/03/07 08:47:57;;;;;;;25.50;16.10;;;;;;;4.86;78.04;98183.98;217568;1260;141051;-66
2023/03/07 08:53:02;;;;;;;31.80;19.80;;;;;;;5.14;78.07;98179.94;217927;1260;139901;-66
2023/03/07 08:58:04;;;;;;;30.00;17.60;;;;;;;5.42;77.44;98177.46;218935;1257;140817;-66
2023/03/07 09:03:08;;;;;;;29.10;14.60;;;;;;;5.56;77.52;98170.23;218730;1258;140344;-64
2023/03/07 09:08:12;;;;;;;23.80;14.30;;;;;;;5.82;77.35;98161.21;220007;1260;139324;-67
2023/03/07 09:13:17;;;;;;;31.00;17.40;;;;;;;6.04;76.85;98151.56;217799;1260;140518;-66
2023/03/07 09:18:21;;;;;;;27.80;17.60;;;;;;;6.18;76.66;98152.70;217709;1260;139876;-66
2023/03/07 09:23:25;;;;;;;28.80;18.00;;;;;;;6.32;76.48;98148.81;217710;1260;139428;-66
2023/03/07 09:28:28;;;;;;;36.00;19.80;;;;;;;6.23;75.91;98140.39;218278;1260;222406;-65
2023/03/07 09:33:30;;;;;;;33.30;20.80;;;;;;;6.24;76.06;98128.12;217357;1261;140566;-68
2023/03/07 09:38:32;;;;;;;35.40;20.40;;;;;;;6.31;75.39;98114.23;217432;1262;141160;-65
2023/03/07 09:43:56;;;;;;;30.30;18.10;;;;;;;6.48;75.90;98107.91;217467;1261;139375;-67
2023/03/07 09:49:29;;;;;;;29.50;18.70;;;;;;;6.49;75.34;98095.48;217299;1260;140161;-67
2023/03/07 09:54:58;;;;;;;32.80;19.20;;;;;;;6.54;74.80;98093.69;217485;1260;140480;-65
2023/03/07 10:00:15;;;;;;;28.40;18.10;;;;;;;6.77;75.12;98082.59;217951;1260;140147;-67
2023/03/07 10:05:37;;;;;;;26.90;16.20;;;;;;;6.88;74.92;98076.61;217874;1260;140366;-68
2023/03/07 10:10:59;;;;;;;29.30;17.20;;;;;;;6.96;74.22;98069.48;217600;1263;140094;-66
2023/03/07 10:16:35;;;;;;;29.30;19.20;;;;;;;7.17;74.34;98065.62;217217;1263;139737;-65
2023/03/07 10:21:52;;;;;;;28.10;17.10;;;;;;;7.17;73.75;98053.02;218214;1263;139038;-66
2023/03/07 10:27:07;;;;;;;27.90;16.40;;;;;;;7.16;73.59;98043.93;217430;1262;139407;-69
2023/03/07 10:32:18;;;;;;;23.10;15.00;;;;;;;7.30;73.71;98027.13;218457;1260;140183;-66
2023/03/07 10:37:35;;;;;;;22.50;14.30;;;;;;;7.32;72.96;98020.63;217684;1256;139514;-66
2023/03/07 10:42:39;;;;;;;23.00;14.70;;;;;;;7.34;72.95;98010.77;217846;1258;140701;-66
2023/03/07 10:47:44;;;;;;;17.00;11.30;;;;;;;7.49;73.01;98008.05;218119;1257;139879;-66
2023/03/07 10:53:21;;;;;;;20.80;13.40;;;;;;;7.48;72.11;97997.77;217934;1257;139852;-65
2023/03/07 10:58:27;;;;;;;20.50;13.80;;;;;;;7.41;72.01;97986.05;220150;1257;141117;-68
2023/03/07 11:03:38;;;;;;;15.40;10.30;;;;;;;7.79;72.37;97978.40;218741;1257;140617;-66
2023/03/07 11:08:56;;;;;;;17.90;11.00;;;;;;;7.77;70.92;97974.35;218434;1260;161576;-68
2023/03/07 11:14:10;;;;;;;13.60;10.30;;;;;;;7.62;70.66;97969.21;217646;1257;139682;-68
2023/03/07 11:19:33;;;;;;;13.80;10.10;;;;;;;7.70;70.63;97958.24;217788;1260;139604;-68
2023/03/07 11:24:38;;;;;;;12.70;9.30;;;;;;;7.77;70.75;97953.25;217542;1260;139945;-66
2023/03/07 11:29:43;;;;;;;14.50;9.90;;;;;;;7.82;69.66;97947.85;218095;1256;140344;-68
2023/03/07 11:34:58;;;;;;;11.20;9.00;;;;;;;7.74;69.21;97950.15;217843;1260;139808;-65
2023/03/07 11:40:18;;;;;;;15.40;11.20;;;;;;;7.74;68.90;97945.70;217961;1257;139820;-67
2023/03/07 11:45:51;;;;;;;11.00;8.80;;;;;;;7.70;68.85;97941.64;217601;1257;139429;-67
2023/03/07 11:50:59;;;;;;;16.20;10.10;;;;;;;7.65;68.23;97945.51;217880;1257;139296;-68
2023/03/07 11:56:18;;;;;;;15.00;10.40;;;;;;;7.51;68.09;97933.63;217941;1258;138985;-66
2023/03/07 12:01:54;;;;;;;12.10;9.30;;;;;;;7.56;67.69;97924.73;217963;1260;138966;-67
2023/03/07 12:07:28;;;;;;;14.50;10.10;;;;;;;7.60;67.70;97926.02;218432;1257;139502;-69
2023/03/07 12:13:20;;;;;;;14.70;9.40;;;;;;;7.54;67.31;97928.50;218255;1258;141663;-67
2023/03/07 12:18:40;;;;;;;20.80;10.30;;;;;;;7.28;67.42;97927.09;218635;1260;139424;-68
2023/03/07 12:24:07;;;;;;;12.40;8.50;;;;;;;7.00;66.88;97923.86;217684;1257;139223;-68
2023/03/07 12:29:39;;;;;;;13.00;9.20;;;;;;;6.68;67.30;97923.96;217695;1257;230256;-67
2023/03/07 12:35:12;;;;;;;14.20;10.00;;;;;;;6.34;67.50;97927.03;217508;1258;139355;-64
2023/03/07 12:40:31;;;;;;;14.80;10.20;;;;;;;6.06;67.46;97926.85;218228;1257;142916;-65
2023/03/07 12:46:10;;;;;;;15.40;9.10;;;;;;;5.79;67.92;97925.61;219356;1257;140636;-65
2023/03/07 12:51:19;;;;;;;12.40;8.80;;;;;;;5.60;68.24;97928.06;220063;1257;140460;-66
2023/03/07 12:56:32;;;;;;;;;;;;;;;5.47;67.73;97921.64;218950;1257;140079;-65
2023/03/07 13:02:13;;;;;;;20.30;11.40;;;;;;;5.40;68.04;97919.01;219111;1256;125842;-65
2023/03/07 13:07:23;;;;;;;17.90;11.60;;;;;;;5.35;68.66;97913.34;217654;1257;141014;-65
2023/03/07 13:12:28;;;;;;;17.40;9.90;;;;;;;5.31;69.19;97910.65;218160;1256;140011;-66
2023/03/07 13:17:32;;;;;;;12.90;9.00;;;;;;;5.28;68.99;97909.02;217621;1256;220632;-66
2023/03/07 13:22:34;;;;;;;15.20;10.10;;;;;;;5.28;69.02;97905.27;218151;1257;140564;-67
2023/03/07 13:27:39;;;;;;;11.20;8.30;;;;;;;5.22;68.97;97902.55;217351;1260;139653;-65
2023/03/07 13:32:48;;;;;;;15.20;9.90;;;;;;;5.19;68.93;97901.36;217496;1256;140111;-65
2023/03/07 13:37:55;;;;;;;16.70;10.70;;;;;;;5.19;69.02;97892.17;217843;1256;139735;-65
2023/03/07 13:42:58;;;;;;;18.10;10.70;;;;;;;5.15;68.97;97884.95;217821;1258;139063;-65
2023/03/07 13:48:00;;;;;;;15.00;11.60;;;;;;;5.16;69.15;97882.67;218242;1257;140171;-65
2023/03/07 13:53:38;;;;;;;14.70;10.70;;;;;;;5.20;69.16;97873.64;217635;1258;139405;-64
2023/03/07 13:59:02;;;;;;;15.50;9.70;;;;;;;5.29;69.08;97864.48;218094;1257;140046;-67
2023/03/07 14:04:10;;;;;;;12.50;9.00;;;;;;;5.32;69.00;97861.36;217506;1256;139459;-67
2023/03/07 14:09:22;;;;;;;18.60;9.80;;;;;;;5.33;69.21;97851.13;217714;1258;139251;-66
2023/03/07 14:14:30;;;;;;;17.10;9.70;;;;;;;5.41;69.00;97849.42;217393;1257;140269;-72
2023/03/07 14:20:10;;;;;;;15.40;9.20;;;;;;;5.47;68.84;97842.63;217475;1260;139940;-67
2023/03/07 14:25:13;;;;;;;14.70;9.20;;;;;;;5.49;68.72;97834.45;217490;1259;140283;-66
2023/03/07 14:30:17;;;;;;;15.10;10.70;;;;;;;5.49;68.88;97830.65;220384;1256;138865;-68
2023/03/07 14:35:41;;;;;;;11.50;9.10;;;;;;;5.50;68.87;97834.15;219569;1257;140467;-68
2023/03/07 14:41:09;;;;;;;11.50;8.60;;;;;;;5.47;68.70;97832.95;218652;1256;138850;-69
2023/03/07 14:46:35;;;;;;;17.20;9.00;;;;;;;5.41;68.79;97833.52;217867;1258;139401;-69
2023/03/07 14:51:41;;;;;;;27.20;11.80;;;;;;;5.35;68.35;97830.12;219278;1256;139985;-68
2023/03/07 14:56:51;;;;;;;14.80;9.60;;;;;;;5.28;68.19;97830.29;218641;1256;140639;-64
2023/03/07 15:01:54;;;;;;;15.60;9.60;;;;;;;5.20;68.80;97831.37;217545;1256;140800;-66
2023/03/07 15:07:03;;;;;;;9.90;7.60;;;;;;;5.18;68.87;97825.07;218815;1256;140197;-64
2023/03/07 15:12:14;;;;;;;13.80;8.80;;;;;;;5.06;69.01;97817.70;217693;1256;139794;-66
2023/03/07 15:17:26;;;;;;;10.10;7.60;;;;;;;4.95;68.55;97815.02;217631;1256;140089;-67
2023/03/07 15:22:38;;;;;;;12.40;7.90;;;;;;;4.91;69.31;97813.00;217887;1256;140948;-68
2023/03/07 15:27:40;;;;;;;13.40;7.80;;;;;;;4.87;69.11;97803.20;217553;1257;140388;-65
2023/03/07 15:32:44;;;;;;;10.90;7.40;;;;;;;4.83;69.18;97795.08;218310;1256;139323;-67
2023/03/07 15:37:57;;;;;;;11.40;7.20;;;;;;;4.79;69.62;97792.90;217504;1257;140042;-67
2023/03/07 15:43:02;;;;;;;57.10;27.70;;;;;;;4.74;69.52;97790.55;219285;1256;138955;-65
2023/03/07 15:48:11;;;;;;;33.50;25.30;;;;;;;4.63;69.51;97785.92;217858;1260;139887;-66
2023/03/07 15:53:26;;;;;;;12.30;8.70;;;;;;;4.55;69.73;97784.41;218176;1256;139999;-64
2023/03/07 15:58:30;;;;;;;12.20;9.60;;;;;;;4.51;70.28;97775.90;217744;1256;139095;-61
2023/03/07 16:03:34;;;;;;;9.50;7.50;;;;;;;4.46;69.99;97766.81;218892;1256;139386;-65
2023/03/07 16:08:37;;;;;;;11.90;9.70;;;;;;;4.38;70.25;97758.00;218804;1257;139763;-65
2023/03/07 16:13:42;;;;;;;10.00;7.20;;;;;;;4.34;70.40;97749.44;217861;1256;139822;-64
2023/03/07 16:18:46;;;;;;;14.30;8.30;;;;;;;4.30;70.48;97742.80;219621;1256;623009;-63
2023/03/07 16:23:49;;;;;;;11.90;8.30;;;;;;;4.25;70.50;97743.10;218645;1256;140034;-66
2023/03/07 16:28:53;;;;;;;9.50;7.10;;;;;;;4.23;70.52;97744.04;220365;1256;139521;-66
2023/03/07 16:33:56;;;;;;;10.70;7.90;;;;;;;4.23;70.84;97749.67;219763;1256;141082;-67
2023/03/07 16:38:59;;;;;;;12.20;8.00;;;;;;;4.24;70.80;97753.48;220088;1259;140196;-66
2023/03/07 16:44:01;;;;;;;14.40;8.80;;;;;;;4.23;71.10;97753.36;218981;1256;139325;-67
2023/03/07 16:49:03;;;;;;;12.60;8.40;;;;;;;4.23;71.24;97756.16;218882;1257;140389;-67
2023/03/07 16:54:06;;;;;;;15.60;7.90;;;;;;;4.19;71.46;97760.70;218280;1258;141717;-64
2023/03/07 16:59:15;;;;;;;12.20;7.70;;;;;;;4.13;71.79;97755.05;218575;1258;139362;-67
2023/03/07 17:04:19;;;;;;;22.00;16.70;;;;;;;4.03;72.14;97756.74;218125;1259;139483;-68
2023/03/07 17:09:23;;;;;;;14.50;11.00;;;;;;;4.01;72.36;97758.24;218269;1259;140127;-63
2023/03/07 17:14:30;;;;;;;;;;;;;;;4.00;72.40;97755.00;218720;1259;139416;-62
2023/03/07 17:19:35;;;;;;;10.20;8.70;;;;;;;3.94;72.61;97757.68;218331;1256;126467;-62
2023/03/07 17:24:40;;;;;;;12.00;7.90;;;;;;;3.91;72.89;97755.16;217811;1257;139238;-62
2023/03/07 17:29:49;;;;;;;12.80;8.30;;;;;;;3.91;73.02;97755.04;217656;1257;140000;-65
2023/03/07 17:34:54;;;;;;;11.10;7.80;;;;;;;3.91;73.02;97752.56;218632;1256;139434;-64
2023/03/07 17:39:57;;;;;;;14.30;9.00;;;;;;;3.87;73.19;97753.19;217424;1257;139408;-65
2023/03/07 17:44:59;;;;;;;14.00;9.80;;;;;;;3.80;73.09;97753.34;217819;1260;139974;-63
2023/03/07 17:50:04;;;;;;;13.50;8.00;;;;;;;3.79;73.43;97755.05;217820;1256;139814;-65
2023/03/07 17:55:09;;;;;;;13.20;9.80;;;;;;;3.78;73.70;97750.02;220157;1256;140903;-66
2023/03/07 18:00:13;;;;;;;9.60;7.60;;;;;;;3.76;73.71;97751.67;217769;1258;139606;-65
2023/03/07 18:05:18;;;;;;;13.70;8.00;;;;;;;3.76;73.86;97747.04;219197;1256;139230;-66
2023/03/07 18:10:21;;;;;;;16.00;10.20;;;;;;;3.76;73.93;97743.66;219352;1256;140863;-65
2023/03/07 18:15:25;;;;;;;13.70;9.10;;;;;;;3.78;74.05;97745.85;218141;1258;140750;-64
2023/03/07 18:20:28;;;;;;;14.20;10.70;;;;;;;3.84;73.96;97746.70;219967;1256;140797;-65
2023/03/07 18:25:31;;;;;;;9.70;7.30;;;;;;;3.88;73.96;97750.25;219988;1256;141245;-65
2023/03/07 18:30:34;;;;;;;10.30;6.80;;;;;;;3.89;74.30;97752.11;220264;1256;139917;-66
2023/03/07 18:35:37;;;;;;;15.20;9.80;;;;;;;3.90;74.03;97747.55;220499;1256;139659;-65
2023/03/07 18:40:41;;;;;;;15.30;9.90;;;;;;;3.92;74.21;97745.10;219197;1258;139801;-64
2023/03/07 18:45:46;;;;;;;20.10;10.10;;;;;;;3.95;74.23;97736.23;218079;1260;140153;-65
2023/03/07 18:51:02;;;;;;;17.30;10.20;;;;;;;3.95;74.35;97735.23;217282;1256;139601;-64
2023/03/07 18:56:08;;;;;;;15.80;11.10;;;;;;;3.94;74.54;97735.81;218823;1256;140181;-65
2023/03/07 19:01:15;;;;;;;16.80;10.90;;;;;;;3.92;74.33;97733.08;218733;1256;140472;-64
2023/03/07 19:06:21;;;;;;;17.10;11.10;;;;;;;3.90;74.21;97734.90;217654;1260;140672;-65
2023/03/07 19:11:25;;;;;;;11.60;7.50;;;;;;;3.92;74.40;97736.80;218689;1257;139991;-65
2023/03/07 19:16:28;;;;;;;13.60;9.30;;;;;;;3.92;74.30;97735.51;217518;1256;139998;-65
2023/03/07 19:21:30;;;;;;;11.70;7.70;;;;;;;3.92;74.61;97731.82;218191;1256;139617;-65
2023/03/07 19:26:32;;;;;;;10.70;8.40;;;;;;;3.91;74.40;97727.53;218133;1256;139637;-63
2023/03/07 19:31:35;;;;;;;9.00;6.90;;;;;;;3.93;74.55;97723.04;217532;1256;139746;-65
2023/03/07 19:36:40;;;;;;;9.30;5.90;;;;;;;3.95;74.57;97715.89;219075;1256;139257;-65
2023/03/07 19:41:49;;;;;;;11.50;7.20;;;;;;;3.96;74.36;97716.80;217839;1259;139039;-65
2023/03/07 19:46:53;;;;;;;12.00;7.00;;;;;;;3.99;74.40;97714.09;218488;1257;140341;-65
2023/03/07 19:51:57;;;;;;;10.30;7.10;;;;;;;4.05;74.29;97709.65;218970;1256;211746;-64
2023/03/07 19:57:00;;;;;;;8.20;6.50;;;;;;;4.08;74.07;97716.75;219467;1260;140559;-67
2023/03/07 20:02:02;;;;;;;9.00;6.60;;;;;;;4.10;74.01;97724.91;218426;1256;140006;-65
2023/03/07 20:07:05;;;;;;;11.00;7.00;;;;;;;4.14;74.11;97726.33;219893;1256;141929;-65
2023/03/07 20:12:09;;;;;;;8.20;5.80;;;;;;;4.14;74.08;97735.88;220425;1256;141613;-66
2023/03/07 20:17:12;;;;;;;7.40;4.70;;;;;;;4.14;74.28;97735.45;220564;1256;141216;-65
2023/03/07 20:22:15;;;;;;;7.50;6.30;;;;;;;4.15;74.16;97738.85;219312;1256;141478;-65
2023/03/07 20:27:22;;;;;;;12.00;7.30;;;;;;;4.14;74.18;97745.26;219418;1256;140411;-65
2023/03/07 20:32:30;;;;;;;12.60;6.30;;;;;;;4.08;74.58;97744.17;218945;1257;140242;-65
2023/03/07 20:37:39;;;;;;;7.60;5.90;;;;;;;4.05;74.77;97741.85;218286;1257;140707;-66
2023/03/07 20:42:42;;;;;;;8.90;7.10;;;;;;;4.02;74.92;97745.66;218881;1256;142225;-66
2023/03/07 20:47:47;;;;;;;11.30;7.40;;;;;;;3.97;75.06;97750.50;218369;1260;139646;-65
2023/03/07 20:52:51;;;;;;;10.20;7.60;;;;;;;3.91;75.33;97752.36;217655;1259;139979;-65
2023/03/07 20:57:55;;;;;;;9.70;7.00;;;;;;;3.82;75.59;97759.54;218575;1257;139372;-64
2023/03/07 21:02:58;;;;;;;9.00;7.20;;;;;;;3.76;75.76;97774.92;218680;1257;141599;-64
2023/03/07 21:08:09;;;;;;;7.80;6.00;;;;;;;3.71;76.19;97790.02;218514;1256;139880;-63
2023/03/07 21:13:15;;;;;;;6.50;4.80;;;;;;;3.60;76.43;97810.19;217523;1259;138911;-65
2023/03/07 21:18:19;;;;;;;4.60;3.20;;;;;;;3.34;75.80;97830.73;218557;1256;139701;-64
2023/03/07 21:23:22;;;;;;;2.30;2.10;;;;;;;3.01;75.57;97841.65;218645;1256;139292;-64
2023/03/07 21:28:25;;;;;;;1.60;1.50;;;;;;;2.71;75.79;97849.39;218584;1256;139868;-64
2023/03/07 21:33:30;;;;;;;5.10;2.30;;;;;;;2.44;75.64;97851.79;217711;1256;140374;-65
2023/03/07 21:38:45;;;;;;;6.10;2.20;;;;;;;2.22;76.26;97848.59;219062;1256;140737;-65
2023/03/07 21:43:49;;;;;;;6.60;6.00;;;;;;;2.11;76.69;97845.60;217702;1260;139483;-64
2023/03/07 21:48:53;;;;;;;7.20;3.80;;;;;;;2.00;76.58;97845.18;218725;1259;139028;-63
2023/03/07 21:53:56;;;;;;;5.10;3.50;;;;;;;1.93;76.91;97850.30;218609;1256;139897;-64
2023/03/07 21:58:59;;;;;;;3.20;2.60;;;;;;;1.88;76.77;97854.66;218196;1256;139892;-65
2023/03/07 22:04:02;;;;;;;5.70;4.10;;;;;;;1.81;76.95;97865.83;219169;1257;221643;-64
2023/03/07 22:09:04;;;;;;;6.00;3.40;;;;;;;1.73;77.46;97862.98;219721;1256;140373;-65
2023/03/07 22:14:07;;;;;;;3.90;3.20;;;;;;;1.68;77.38;97868.22;220329;1257;140004;-65
2023/03/07 22:19:10;;;;;;;7.00;3.60;;;;;;;1.63;77.97;97871.06;219628;1257;139686;-64
2023/03/07 22:24:14;;;;;;;5.40;3.50;;;;;;;1.59;77.84;97869.61;218555;1257;141161;-64
2023/03/07 22:29:17;;;;;;;2.30;2.10;;;;;;;1.57;78.19;97867.25;217970;1257;139976;-64
2023/03/07 22:34:21;;;;;;;2.80;2.30;;;;;;;1.50;78.25;97868.02;218961;1257;141166;-65
2023/03/07 22:39:25;;;;;;;3.70;2.00;;;;;;;1.48;78.59;97871.12;218850;1257;140307;-65
2023/03/07 22:44:28;;;;;;;5.00;3.20;;;;;;;1.46;78.80;97873.56;218840;1259;140180;-65
2023/03/07 22:49:32;;;;;;;3.30;2.90;;;;;;;1.43;79.04;97878.69;218286;1260;140803;-64
2023/03/07 22:54:38;;;;;;;3.80;3.10;;;;;;;1.41;78.80;97876.38;218065;1257;139942;-64
2023/03/07 22:59:42;;;;;;;5.70;3.30;;;;;;;1.38;78.98;97877.34;219084;1256;139790;-64
2023/03/07 23:04:45;;;;;;;3.80;3.00;;;;;;;1.30;78.97;97874.14;218145;1257;139807;-65
2023/03/07 23:09:48;;;;;;;4.00;3.70;;;;;;;1.29;79.26;97876.05;218322;1257;139927;-65
2023/03/07 23:14:51;;;;;;;4.70;3.60;;;;;;;1.23;79.41;97877.79;217595;1256;141525;-64
2023/03/07 23:19:55;;;;;;;4.80;4.30;;;;;;;1.18;79.43;97883.92;219060;1255;140082;-64